createdAt,value
2019-03-06T00:00:50.769Z,74.93
2019-03-06T00:03:18.362Z,74.10
2019-03-06T00:05:45.788Z,74.63
2019-03-06T00:08:13.227Z,75.63
2019-03-06T00:10:40.675Z,75.80
2019-03-06T00:13:08.286Z,75.79
2019-03-06T00:15:35.773Z,75.12
2019-03-06T00:18:03.298Z,75.60
2019-03-06T00:20:30.753Z,76.22
2019-03-06T00:22:58.240Z,76.41
2019-03-06T00:25:25.721Z,76.94
2019-03-06T00:27:53.166Z,77.57
2019-03-06T00:30:20.656Z,77.77
2019-03-06T00:32:48.123Z,77.83
2019-03-06T00:35:15.906Z,77.17
2019-03-06T00:37:43.421Z,77.76
2019-03-06T00:40:22.600Z,77.07
2019-03-06T00:42:50.122Z,77.64
2019-03-06T00:45:18.261Z,77.60
2019-03-06T00:47:45.882Z,78.59
2019-03-06T00:50:13.350Z,78.14
2019-03-06T00:52:40.877Z,78.46
2019-03-06T00:55:08.371Z,79.01
2019-03-06T00:57:35.853Z,80.07
2019-03-06T01:00:03.336Z,79.76
2019-03-06T01:02:30.851Z,80.05
2019-03-06T01:04:59.984Z,79.63
2019-03-06T01:07:27.525Z,79.76
2019-03-06T01:09:55.007Z,79.96
2019-03-06T01:12:22.457Z,78.93
2019-03-06T01:14:49.934Z,79.70
2019-03-06T01:17:17.374Z,80.16
2019-03-06T01:19:44.829Z,79.85
2019-03-06T01:22:12.267Z,80.70
2019-03-06T01:24:39.726Z,80.26
2019-03-06T01:27:07.142Z,79.97
2019-03-06T01:29:34.606Z,80.14
2019-03-06T01:32:02.019Z,79.59
2019-03-06T01:34:30.796Z,80.99
2019-03-06T01:36:59.224Z,80.51
2019-03-06T01:39:32.087Z,80.67
2019-03-06T01:42:00.925Z,80.61
2019-03-06T01:44:29.335Z,80.23
2019-03-06T01:46:56.810Z,80.88
2019-03-06T01:49:24.278Z,81.37
2019-03-06T01:51:51.718Z,81.52
2019-03-06T01:54:19.834Z,81.23
2019-03-06T01:56:47.307Z,81.64
2019-03-06T01:59:14.756Z,81.61
2019-03-06T02:01:43.257Z,82.35
2019-03-06T02:04:10.798Z,82.49
2019-03-06T02:06:38.311Z,81.93
2019-03-06T02:09:05.829Z,82.20
2019-03-06T02:11:33.271Z,82.78
2019-03-06T02:14:01.448Z,83.83
2019-03-06T02:16:29.112Z,82.51
2019-03-06T02:18:56.589Z,81.93
2019-03-06T02:21:24.065Z,83.97
2019-03-06T02:23:52.424Z,83.74
2019-03-06T02:26:20.346Z,83.12
2019-03-06T02:28:47.851Z,82.69
2019-03-06T02:31:15.269Z,83.55
2019-03-06T02:33:42.737Z,83.45
2019-03-06T02:36:10.261Z,85.16
2019-03-06T02:38:37.793Z,84.90
2019-03-06T02:41:05.252Z,84.36
2019-03-06T02:43:32.727Z,84.43
2019-03-06T02:46:00.188Z,84.26
2019-03-06T02:48:29.610Z,84.76
2019-03-06T02:50:57.226Z,83.94
2019-03-06T02:53:24.693Z,84.17
2019-03-06T02:55:52.170Z,84.40
2019-03-06T02:58:25.147Z,85.02
2019-03-06T03:00:55.406Z,84.91
2019-03-06T03:03:22.898Z,84.64
2019-03-06T03:05:54.660Z,84.91
2019-03-06T03:08:22.115Z,86.27
2019-03-06T03:10:49.569Z,85.17
2019-03-06T03:13:17.100Z,84.95
2019-03-06T03:15:44.569Z,84.74
2019-03-06T03:18:12.000Z,83.86
2019-03-06T03:20:39.460Z,84.81
2019-03-06T03:23:06.884Z,84.27
2019-03-06T03:25:34.329Z,84.43
2019-03-06T03:28:01.765Z,84.85
2019-03-06T03:30:29.247Z,85.19
2019-03-06T03:32:56.720Z,85.88
2019-03-06T03:35:24.162Z,86.05
2019-03-06T03:37:51.746Z,85.82
2019-03-06T03:40:19.193Z,85.92
2019-03-06T03:42:46.700Z,86.24
2019-03-06T03:45:15.177Z,85.79
2019-03-06T03:47:42.709Z,85.78
2019-03-06T03:50:10.186Z,86.39
2019-03-06T03:52:37.658Z,86.38
2019-03-06T03:55:19.977Z,85.59
2019-03-06T03:57:47.448Z,85.88
2019-03-06T04:00:19.458Z,86.16
2019-03-06T04:02:46.925Z,85.86
2019-03-06T04:05:14.340Z,86.70
2019-03-06T04:07:42.147Z,87.04
2019-03-06T04:10:10.382Z,87.10
2019-03-06T04:12:37.836Z,86.51
2019-03-06T04:15:05.272Z,86.52
2019-03-06T04:17:32.725Z,86.72
2019-03-06T04:20:01.210Z,87.21
2019-03-06T04:22:28.732Z,87.34
2019-03-06T04:24:56.218Z,86.79
2019-03-06T04:27:23.652Z,86.33
2019-03-06T04:29:51.335Z,86.23
2019-03-06T04:32:18.816Z,85.90
2019-03-06T04:34:46.303Z,85.47
2019-03-06T04:37:13.735Z,85.30
2019-03-06T04:39:41.227Z,84.96
2019-03-06T04:42:08.685Z,85.27
2019-03-06T04:44:36.127Z,85.80
2019-03-06T04:47:03.595Z,85.46
2019-03-06T04:49:31.085Z,85.78
2019-03-06T04:51:58.549Z,85.91
2019-03-06T04:54:26.036Z,85.29
2019-03-06T04:56:53.484Z,86.01
2019-03-06T04:59:20.920Z,86.26
2019-03-06T05:01:48.413Z,85.24
2019-03-06T05:04:15.847Z,84.93
2019-03-06T05:06:43.341Z,85.50
2019-03-06T05:09:10.774Z,85.62
2019-03-06T05:11:38.219Z,85.50
2019-03-06T05:14:05.714Z,85.12
2019-03-06T05:16:51.444Z,84.46
2019-03-06T05:19:18.902Z,84.62
2019-03-06T05:21:46.360Z,83.94
2019-03-06T05:24:13.812Z,83.91
2019-03-06T05:26:41.277Z,84.25
2019-03-06T05:29:08.794Z,84.33
2019-03-06T05:31:36.214Z,84.30
2019-03-06T05:34:03.691Z,84.62
2019-03-06T05:36:45.846Z,84.89
2019-03-06T05:39:13.315Z,85.04
2019-03-06T05:41:40.763Z,84.61
2019-03-06T05:44:08.232Z,84.72
2019-03-06T05:46:35.697Z,84.63
2019-03-06T05:49:03.150Z,84.07
2019-03-06T05:51:31.521Z,83.62
2019-03-06T05:53:59.117Z,84.44
2019-03-06T05:56:26.617Z,83.85
2019-03-06T05:58:54.682Z,84.45
2019-03-06T06:01:22.141Z,84.50
2019-03-06T06:03:49.574Z,83.56
2019-03-06T06:06:17.006Z,83.75
2019-03-06T06:08:44.482Z,83.71
2019-03-06T06:11:11.928Z,83.71
2019-03-06T06:13:39.361Z,83.36
2019-03-06T06:16:06.855Z,84.32
2019-03-06T06:18:34.306Z,83.44
2019-03-06T06:21:07.330Z,82.94
2019-03-06T06:23:41.233Z,83.04
2019-03-06T06:26:09.179Z,82.23
2019-03-06T06:28:36.925Z,82.68
2019-03-06T06:31:04.378Z,82.22
2019-03-06T06:33:31.821Z,82.14
2019-03-06T06:35:59.324Z,81.94
2019-03-06T06:38:26.894Z,82.92
2019-03-06T06:40:55.350Z,82.20
2019-03-06T06:43:22.871Z,82.03
2019-03-06T06:45:50.391Z,82.68
2019-03-06T06:48:19.650Z,82.59
2019-03-06T06:51:07.491Z,83.12
2019-03-06T06:53:35.848Z,83.16
2019-03-06T06:59:11.768Z,82.52
2019-03-06T07:02:03.645Z,82.41
2019-03-06T07:05:09.154Z,81.83
2019-03-06T07:07:39.989Z,81.46
2019-03-06T07:10:12.931Z,81.34
2019-03-06T07:12:44.838Z,81.29
2019-03-06T07:15:29.979Z,81.15
2019-03-06T07:18:13.115Z,80.87
2019-03-06T07:21:00.361Z,80.49
2019-03-06T07:23:29.769Z,80.38
2019-03-06T07:26:12.110Z,80.75
2019-03-06T07:28:50.388Z,80.02
2019-03-06T07:31:18.618Z,79.74
2019-03-06T07:33:47.423Z,79.34
2019-03-06T07:36:21.675Z,78.89
2019-03-06T07:38:49.142Z,79.12
2019-03-06T07:41:20.559Z,78.21
2019-03-06T07:44:06.773Z,77.88
2019-03-06T07:46:54.143Z,77.46
2019-03-06T07:49:24.384Z,77.51
2019-03-06T07:51:58.464Z,77.47
2019-03-06T07:54:42.486Z,77.13
2019-03-06T07:57:24.881Z,76.38
2019-03-06T07:59:52.395Z,76.28
2019-03-06T08:02:26.261Z,76.14
2019-03-06T08:04:53.693Z,75.73
2019-03-06T08:07:21.158Z,75.96
2019-03-06T08:09:48.640Z,75.23
2019-03-06T08:12:19.563Z,75.06
2019-03-06T08:14:47.059Z,74.48
2019-03-06T08:17:20.043Z,74.63
2019-03-06T08:19:47.991Z,74.31
2019-03-06T08:22:35.106Z,73.62
2019-03-06T08:25:03.373Z,73.76
2019-03-06T08:27:30.855Z,72.98
2019-03-06T08:29:58.380Z,73.22
2019-03-06T08:32:25.821Z,72.69
2019-03-06T08:34:53.332Z,72.30
2019-03-06T08:37:20.802Z,72.05
2019-03-06T08:39:48.251Z,71.32
2019-03-06T08:42:15.691Z,71.11
2019-03-06T08:44:43.164Z,70.81
2019-03-06T08:47:11.109Z,70.43
2019-03-06T08:49:44.390Z,70.49
2019-03-06T08:52:11.844Z,69.80
2019-03-06T08:54:42.734Z,70.45
2019-03-06T08:57:25.993Z,70.64
2019-03-06T09:00:08.333Z,69.36
2019-03-06T09:02:42.344Z,68.91
2019-03-06T09:05:24.684Z,69.96
2019-03-06T09:07:52.170Z,69.36
2019-03-06T09:10:25.362Z,68.92
2019-03-06T09:13:07.708Z,69.15
2019-03-06T09:15:37.332Z,67.46
2019-03-06T09:18:09.338Z,68.21
2019-03-06T09:20:41.130Z,68.62
2019-03-06T09:23:09.795Z,68.73
2019-03-06T09:25:42.771Z,67.64
2019-03-06T09:28:15.774Z,67.12
2019-03-06T09:30:55.067Z,67.16
2019-03-06T09:33:22.529Z,67.61
2019-03-06T09:35:52.756Z,67.15
2019-03-06T09:38:20.928Z,66.53
2019-03-06T09:40:49.171Z,66.96
2019-03-06T09:43:31.553Z,67.22
2019-03-06T09:46:09.001Z,66.50
2019-03-06T09:48:36.483Z,66.39
2019-03-06T09:51:07.851Z,66.40
2019-03-06T09:53:36.133Z,66.35
2019-03-06T09:56:14.403Z,67.51
2019-03-06T09:58:52.602Z,67.26
2019-03-06T10:01:25.579Z,67.42
2019-03-06T10:03:53.902Z,66.28
2019-03-06T10:06:37.926Z,66.14
2019-03-06T10:09:07.916Z,66.82
2019-03-06T10:11:40.057Z,65.50
2019-03-06T10:14:22.377Z,66.19
2019-03-06T10:17:04.810Z,65.23
2019-03-06T10:19:32.268Z,64.91
2019-03-06T10:21:59.910Z,65.52
2019-03-06T10:24:27.370Z,64.52
2019-03-06T10:26:54.854Z,64.84
2019-03-06T10:29:22.404Z,63.79
2019-03-06T10:31:49.878Z,64.15
2019-03-06T10:34:17.323Z,62.69
2019-03-06T10:36:44.854Z,62.60
2019-03-06T10:39:12.323Z,65.19
2019-03-06T10:41:39.820Z,62.64
2019-03-06T10:44:07.304Z,62.83
2019-03-06T10:46:34.791Z,63.41
2019-03-06T10:49:02.244Z,62.36
2019-03-06T10:51:31.074Z,61.46
2019-03-06T10:53:57.910Z,62.35
2019-03-06T10:56:25.375Z,60.46
2019-03-06T10:58:52.859Z,61.87
2019-03-06T11:01:20.358Z,61.22
2019-03-06T11:03:50.567Z,60.79
2019-03-06T11:06:18.046Z,59.79
2019-03-06T11:08:45.531Z,60.70
2019-03-06T11:11:13.008Z,59.98
2019-03-06T11:13:40.470Z,58.97
2019-03-06T11:16:08.055Z,60.07
2019-03-06T11:18:35.520Z,59.25
2019-03-06T11:21:02.985Z,57.72
2019-03-06T11:23:31.207Z,58.44
2019-03-06T11:25:58.688Z,57.89
2019-03-06T11:28:26.170Z,58.67
2019-03-06T11:30:55.457Z,58.01
2019-03-06T11:33:22.919Z,56.71
2019-03-06T11:35:50.444Z,58.28
2019-03-06T11:38:17.921Z,58.35
2019-03-06T11:40:45.440Z,59.01
2019-03-06T11:43:12.897Z,57.85
2019-03-06T11:45:40.437Z,57.55
2019-03-06T11:48:07.909Z,57.61
2019-03-06T11:50:40.952Z,56.63
2019-03-06T11:53:02.868Z,56.24
2019-03-06T11:55:30.345Z,56.35
2019-03-06T11:57:57.808Z,55.40
2019-03-06T12:00:30.931Z,54.80
2019-03-06T12:02:58.420Z,56.06
2019-03-06T12:05:25.883Z,56.15
2019-03-06T12:07:53.399Z,56.21
2019-03-06T12:10:20.875Z,56.22
2019-03-06T12:12:48.349Z,56.77
2019-03-06T12:15:15.826Z,55.57
2019-03-06T12:17:43.300Z,56.96
2019-03-06T12:20:10.811Z,56.08
2019-03-06T12:22:38.277Z,56.51
2019-03-06T12:25:13.378Z,54.89
2019-03-06T12:27:40.834Z,55.89
2019-03-06T12:30:15.796Z,55.01
2019-03-06T12:32:43.266Z,55.06
2019-03-06T12:35:10.773Z,56.63
2019-03-06T12:37:46.747Z,55.44
2019-03-06T12:40:12.255Z,55.43
2019-03-06T12:42:34.988Z,55.55
2019-03-06T12:45:02.512Z,54.71
2019-03-06T12:47:30.005Z,57.89
2019-03-06T12:50:05.434Z,57.83
2019-03-06T12:52:25.000Z,57.33
2019-03-06T12:54:52.519Z,57.66
2019-03-06T12:57:20.059Z,57.75
2019-03-06T12:59:47.489Z,57.40
2019-03-06T13:02:14.952Z,57.55
2019-03-06T13:04:42.440Z,57.50
2019-03-06T13:07:09.912Z,57.57
2019-03-06T13:09:37.684Z,57.83
2019-03-06T13:12:04.888Z,57.25
2019-03-06T13:14:33.108Z,56.02
2019-03-06T13:17:00.573Z,55.95
2019-03-06T13:19:28.072Z,55.80
2019-03-06T13:21:55.501Z,54.93
2019-03-06T13:24:22.936Z,56.00
2019-03-06T13:26:50.442Z,56.02
2019-03-06T13:29:17.907Z,55.69
2019-03-06T13:31:45.371Z,54.56
2019-03-06T13:34:13.110Z,55.53
2019-03-06T13:36:40.584Z,54.97
2019-03-06T13:39:08.059Z,55.06
2019-03-06T13:41:35.541Z,55.14
2019-03-06T13:44:03.586Z,55.83
2019-03-06T13:46:31.103Z,54.46
2019-03-06T13:48:58.613Z,54.69
2019-03-06T13:51:26.098Z,55.59
2019-03-06T13:53:56.583Z,55.74
2019-03-06T13:56:22.304Z,56.24
2019-03-06T13:58:49.838Z,55.73
2019-03-06T14:01:17.301Z,54.65
2019-03-06T14:03:44.822Z,54.76
2019-03-06T14:06:12.316Z,54.72
2019-03-06T14:08:39.818Z,54.58
2019-03-06T14:11:07.274Z,54.83
2019-03-06T14:13:34.734Z,55.75
2019-03-06T14:16:02.197Z,56.00
2019-03-06T14:18:29.699Z,56.23
2019-03-06T14:20:57.194Z,55.59
2019-03-06T14:23:24.676Z,55.00
2019-03-06T14:25:52.128Z,55.52
2019-03-06T14:28:20.000Z,55.49
2019-03-06T14:30:47.500Z,56.37
2019-03-06T14:33:14.989Z,56.71
2019-03-06T14:35:42.432Z,58.52
2019-03-06T14:38:09.895Z,58.52
2019-03-06T14:40:37.385Z,59.39
2019-03-06T14:43:06.748Z,60.00
2019-03-06T14:45:34.767Z,60.82
2019-03-06T14:48:02.244Z,61.85
2019-03-06T14:50:29.741Z,61.49
2019-03-06T14:52:57.223Z,62.72
2019-03-06T14:55:24.721Z,63.00
2019-03-06T14:57:52.174Z,63.64
2019-03-06T15:00:19.608Z,64.81
2019-03-06T15:02:47.071Z,66.26
2019-03-06T15:05:14.520Z,67.19
2019-03-06T15:07:41.981Z,67.68
2019-03-06T15:10:11.918Z,66.03
2019-03-06T15:12:39.349Z,67.68
2019-03-06T15:15:07.692Z,69.65
2019-03-06T15:17:35.175Z,66.54
2019-03-06T15:20:02.660Z,68.83
2019-03-06T15:22:38.352Z,65.42
2019-03-06T15:24:59.204Z,67.53
2019-03-06T15:27:26.783Z,67.00
2019-03-06T15:29:54.267Z,67.00
2019-03-06T15:32:21.768Z,66.71
2019-03-06T15:34:49.243Z,68.76
2019-03-06T15:37:16.702Z,66.94
2019-03-06T15:39:48.427Z,68.38
2019-03-06T15:42:11.625Z,68.20
2019-03-06T15:44:39.086Z,68.89
2019-03-06T15:47:08.355Z,70.19
2019-03-06T15:49:35.982Z,69.74
2019-03-06T15:52:03.459Z,70.79
2019-03-06T15:54:30.907Z,70.92
2019-03-06T15:56:58.372Z,72.05
2019-03-06T15:59:26.967Z,71.27
2019-03-06T16:01:54.464Z,69.90
2019-03-06T16:04:21.945Z,72.04
2019-03-06T16:06:54.080Z,70.65
2019-03-06T16:09:16.918Z,72.49
2019-03-06T16:11:44.384Z,72.25
2019-03-06T16:14:11.893Z,71.61
2019-03-06T16:16:39.331Z,71.40
2019-03-06T16:19:06.763Z,72.14
2019-03-06T16:21:34.215Z,72.54
2019-03-06T16:24:01.748Z,73.58
2019-03-06T16:26:29.204Z,74.34
2019-03-06T16:28:56.694Z,74.20
2019-03-06T16:31:24.164Z,74.27
2019-03-06T16:33:53.403Z,74.97
2019-03-06T16:36:20.992Z,74.85
2019-03-06T16:38:48.460Z,76.50
2019-03-06T16:41:15.950Z,75.70
2019-03-06T16:43:43.447Z,74.52
2019-03-06T16:46:10.986Z,75.40
2019-03-06T16:48:38.499Z,75.69
2019-03-06T16:51:07.058Z,77.13
2019-03-06T16:53:34.523Z,77.79
2019-03-06T16:56:01.972Z,77.50
2019-03-06T16:58:29.439Z,76.99
2019-03-06T17:00:57.097Z,76.45
2019-03-06T17:03:24.538Z,76.82
2019-03-06T17:05:52.009Z,76.42
2019-03-06T17:08:19.477Z,76.74
2019-03-06T17:10:46.941Z,76.92
2019-03-06T17:13:14.394Z,77.91
2019-03-06T17:15:41.904Z,78.18
2019-03-06T17:18:09.358Z,76.63
2019-03-06T17:20:37.691Z,76.56
2019-03-06T17:23:05.157Z,78.32
2019-03-06T17:25:32.665Z,76.43
2019-03-06T17:28:00.119Z,76.90
2019-03-06T17:30:28.319Z,76.36
2019-03-06T17:32:56.565Z,76.88
2019-03-06T17:35:24.012Z,76.13
2019-03-06T17:37:51.496Z,76.10
2019-03-06T17:40:18.941Z,76.89
2019-03-06T17:42:46.425Z,77.58
2019-03-06T17:45:13.881Z,76.85
2019-03-06T17:47:41.375Z,77.75
2019-03-06T17:50:08.824Z,78.76
2019-03-06T17:52:36.291Z,79.39
2019-03-06T17:55:03.932Z,78.65
2019-03-06T17:57:31.388Z,79.30
2019-03-06T17:59:58.869Z,79.67
2019-03-06T18:02:26.572Z,79.21
2019-03-06T18:04:53.894Z,79.80
2019-03-06T18:07:21.374Z,79.89
2019-03-06T18:09:48.861Z,79.35
2019-03-06T18:12:16.318Z,80.82
2019-03-06T18:14:43.867Z,80.90
2019-03-06T18:17:11.339Z,80.19
2019-03-06T18:19:38.834Z,81.96
2019-03-06T18:22:06.273Z,82.64
2019-03-06T18:24:33.767Z,82.61
2019-03-06T18:27:01.257Z,82.58
2019-03-06T18:29:28.690Z,83.46
2019-03-06T18:31:56.190Z,83.48
2019-03-06T18:34:23.718Z,83.23
2019-03-06T18:36:52.128Z,84.20
2019-03-06T18:39:19.579Z,83.61
2019-03-06T18:41:47.100Z,83.58
2019-03-06T18:44:14.614Z,83.94
2019-03-06T18:46:42.081Z,84.44
2019-03-06T18:49:09.566Z,84.55
2019-03-06T18:51:37.032Z,85.81
2019-03-06T18:54:04.566Z,85.17
2019-03-06T18:56:32.055Z,86.19
2019-03-06T18:58:59.579Z,85.68
2019-03-06T19:01:27.133Z,86.40
2019-03-06T19:03:55.828Z,86.84
2019-03-06T19:06:22.112Z,87.14
2019-03-06T19:08:49.607Z,86.42
2019-03-06T19:11:17.340Z,86.28
2019-03-06T19:13:44.523Z,86.82
2019-03-06T19:16:12.022Z,86.80
2019-03-06T19:18:39.774Z,86.94
2019-03-06T19:21:07.217Z,86.80
2019-03-06T19:23:34.664Z,86.74
2019-03-06T19:26:02.138Z,86.81
2019-03-06T19:28:29.559Z,86.22
2019-03-06T19:30:57.000Z,86.04
2019-03-06T19:33:24.443Z,86.76
2019-03-06T19:35:51.934Z,86.55
2019-03-06T19:38:19.453Z,87.07
2019-03-06T19:40:46.895Z,87.03
2019-03-06T19:43:14.366Z,86.89
2019-03-06T19:45:41.840Z,87.64
2019-03-06T19:48:09.301Z,86.97
2019-03-06T19:50:36.787Z,87.04
2019-03-06T19:53:04.309Z,87.16
2019-03-06T19:55:31.797Z,87.09
2019-03-06T19:58:03.764Z,87.59
2019-03-06T20:00:31.294Z,86.96
2019-03-06T20:02:58.771Z,87.61
2019-03-06T20:05:26.267Z,87.93
2019-03-06T20:07:53.775Z,88.16
2019-03-06T20:10:21.252Z,89.10
2019-03-06T20:12:48.711Z,88.78
2019-03-06T20:15:16.204Z,88.30
2019-03-06T20:17:43.641Z,88.97
2019-03-06T20:20:11.080Z,88.74
2019-03-06T20:22:38.617Z,88.08
2019-03-06T20:25:06.047Z,89.09
2019-03-06T20:27:33.549Z,88.91
2019-03-06T20:30:01.026Z,88.68
2019-03-06T20:32:28.515Z,89.41
2019-03-06T20:34:55.961Z,89.15
2019-03-06T20:37:24.614Z,89.32
2019-03-06T20:39:52.318Z,89.03
2019-03-06T20:42:19.785Z,90.08
2019-03-06T20:44:47.235Z,89.78
2019-03-06T20:47:14.672Z,90.20
2019-03-06T20:49:42.144Z,89.53
2019-03-06T20:52:09.619Z,90.01
2019-03-06T20:54:37.077Z,89.92
2019-03-06T20:57:04.568Z,89.44
2019-03-06T20:59:31.987Z,89.37
2019-03-06T21:01:59.454Z,89.12
2019-03-06T21:04:26.979Z,89.48
2019-03-06T21:06:54.463Z,89.56
2019-03-06T21:09:21.922Z,90.09
2019-03-06T21:11:49.401Z,89.92
2019-03-06T21:14:16.844Z,89.36
2019-03-06T21:16:44.349Z,89.46
2019-03-06T21:19:12.165Z,89.12
2019-03-06T21:21:39.649Z,89.41
2019-03-06T21:24:07.091Z,89.51
2019-03-06T21:26:34.561Z,90.00
2019-03-06T21:29:02.005Z,89.12
2019-03-06T21:31:29.435Z,89.13
2019-03-06T21:33:56.897Z,88.91
2019-03-06T21:36:24.363Z,89.07
2019-03-06T21:38:51.812Z,88.70
2019-03-06T21:41:19.299Z,89.09
2019-03-06T21:43:46.779Z,89.06
2019-03-06T21:46:14.230Z,88.53
2019-03-06T21:48:42.714Z,87.79
2019-03-06T21:51:10.216Z,88.22
2019-03-06T21:53:39.112Z,88.13
2019-03-06T21:56:05.212Z,88.61
2019-03-06T21:58:32.703Z,88.88
2019-03-06T22:01:00.144Z,88.46
2019-03-06T22:03:27.614Z,89.55
2019-03-06T22:05:55.076Z,90.04
2019-03-06T22:08:22.540Z,89.70
2019-03-06T22:10:49.986Z,89.15
2019-03-06T22:13:17.488Z,89.01
2019-03-06T22:15:44.985Z,88.78
2019-03-06T22:18:13.240Z,88.93
2019-03-06T22:20:40.738Z,88.89
2019-03-06T22:23:08.221Z,88.63
2019-03-06T22:25:36.673Z,88.90
2019-03-06T22:28:04.274Z,88.71
2019-03-06T22:30:31.723Z,88.32
2019-03-06T22:32:59.659Z,89.26
2019-03-06T22:35:26.709Z,89.61
2019-03-06T22:37:54.182Z,89.64
2019-03-06T22:40:21.650Z,89.38
2019-03-06T22:42:49.097Z,89.12
2019-03-06T22:45:16.557Z,89.10
2019-03-06T22:47:43.992Z,89.11
2019-03-06T22:50:11.478Z,89.53
2019-03-06T22:52:38.937Z,89.31
2019-03-06T22:55:06.423Z,89.09
2019-03-06T22:57:33.887Z,89.11
2019-03-06T23:00:01.320Z,89.13
2019-03-06T23:02:28.786Z,89.35
2019-03-06T23:04:57.188Z,89.31
